createdAt,value
2018-09-24T04:22:25.458Z,15.64
2018-09-24T04:35:59.961Z,15.35
2018-09-24T04:36:53.601Z,15.36
2018-09-24T04:37:52.665Z,15.35
2018-09-24T04:38:51.093Z,15.34
2018-09-24T04:39:50.688Z,15.34
2018-09-24T04:40:49.508Z,15.41
2018-09-24T04:41:48.209Z,15.34
2018-09-24T04:42:47.024Z,15.36
2018-09-24T04:43:45.845Z,15.41
2018-09-24T04:44:44.659Z,15.43
2018-09-24T04:45:43.159Z,15.34
2018-09-24T04:48:06.800Z,15.25
2018-09-24T04:49:05.990Z,15.27
2018-09-24T04:50:04.673Z,15.21
2018-09-24T04:51:03.473Z,15.25
2018-09-24T04:52:02.206Z,15.2
2018-09-24T04:53:00.967Z,15.27
2018-09-24T04:53:59.876Z,15.2
2018-09-24T04:54:58.639Z,15.03
2018-09-24T04:57:39.203Z,15.09
2018-09-24T04:58:38.150Z,15.01
2018-09-24T05:01:18.468Z,15.03
2018-09-24T05:02:16.988Z,15.02
2018-09-24T05:03:15.754Z,15.07
2018-09-24T05:04:14.598Z,15.02
2018-09-24T05:05:13.857Z,15.07
2018-09-24T05:06:12.240Z,15.06
2018-09-24T05:07:11.309Z,15.09
2018-09-24T05:08:10.175Z,14.98
2018-09-24T05:09:08.719Z,15.06
2018-09-24T05:10:07.700Z,15.07
2018-09-24T05:11:08.027Z,15.27
2018-09-24T05:12:06.855Z,15.02
2018-09-24T05:13:06.062Z,15.09
2018-09-24T05:15:46.188Z,15.2
2018-09-24T05:16:45.017Z,15.21
2018-09-24T05:19:37.545Z,15.31
2018-09-24T05:20:36.404Z,15.23
2018-09-24T05:21:35.364Z,15.23
2018-09-24T05:35:04.987Z,15.34
2018-09-24T05:35:59.122Z,15.35
2018-09-24T05:36:58.071Z,15.36
2018-09-24T05:39:38.500Z,15.29
2018-09-24T05:40:37.567Z,15.41
2018-09-24T05:41:36.549Z,15.31
2018-09-24T05:42:35.508Z,15.14
2018-09-24T05:43:34.866Z,15.13
2018-09-24T05:44:33.528Z,15.03
2018-09-24T05:45:32.665Z,15.1
2018-09-24T05:50:53.889Z,15.06
2018-09-24T05:51:52.631Z,15.02
2018-09-24T05:58:55.478Z,14.92
2018-09-24T06:01:35.755Z,15.17
2018-09-24T06:04:16.370Z,15.47
2018-09-24T06:06:57.923Z,15.56
2018-09-24T06:09:37.373Z,15.51
2018-09-24T06:11:26.220Z,15.5
2018-09-24T06:12:22.085Z,15.74
2018-09-24T06:13:21.007Z,15.83
2018-09-24T06:14:20.785Z,16.01
2018-09-24T06:17:01.727Z,16.05
2018-09-24T06:20:42.409Z,16.25
2018-09-24T06:21:42.289Z,16.07
2018-09-24T06:24:22.717Z,16.23
2018-09-24T06:27:03.324Z,16.21
2018-09-24T06:28:02.251Z,16.2
2018-09-24T06:30:42.462Z,16.21
2018-09-24T06:33:23.031Z,16.15
2018-09-24T06:35:24.989Z,16.09
2018-09-24T06:37:41.223Z,16.07
2018-09-24T06:38:41.247Z,16.08
2018-09-24T06:39:40.388Z,16.09
2018-09-24T06:40:39.008Z,16.23
2018-09-24T06:41:38.496Z,16.28
2018-09-24T06:42:36.703Z,16.17
2018-09-24T06:43:35.473Z,16.23
2018-09-24T06:44:34.274Z,16.21
2018-09-24T06:45:33.098Z,16.15
2018-09-24T06:46:32.244Z,16.23
2018-09-24T06:47:30.671Z,16.24
2018-09-24T06:48:29.996Z,16.39
2018-09-24T06:49:29.273Z,16.6
2018-09-24T06:50:28.036Z,16.68
2018-09-24T06:51:26.668Z,16.57
2018-09-24T06:52:25.459Z,16.79
2018-09-24T06:53:24.184Z,16.76
2018-09-24T06:54:23.205Z,16.88
2018-09-24T06:55:21.738Z,16.97
2018-09-24T06:56:20.684Z,16.97
2018-09-24T06:57:19.432Z,16.89
2018-09-24T06:58:19.293Z,16.83
2018-09-24T06:59:18.156Z,17.01
2018-09-24T07:00:16.617Z,17.11
2018-09-24T07:01:16.004Z,17.25
2018-09-24T07:03:56.796Z,16.94
2018-09-24T07:04:55.573Z,17.22
2018-09-24T07:05:54.196Z,17.33
2018-09-24T07:06:52.945Z,17.46
2018-09-24T07:07:52.071Z,17.51
2018-09-24T07:08:51.116Z,17.56
2018-09-24T07:09:50.530Z,17.51
2018-09-24T07:10:52.083Z,17.62
2018-09-24T07:11:50.895Z,17.51
2018-09-24T07:12:49.906Z,17.46
2018-09-24T07:15:30.358Z,17.4
2018-09-24T07:16:29.197Z,17.23
2018-09-24T07:17:27.885Z,17.37
2018-09-24T07:18:26.879Z,17.48
2018-09-24T07:19:25.900Z,17.4
2018-09-24T07:20:24.770Z,17.43
2018-09-24T07:21:23.574Z,17.44
2018-09-24T07:22:22.066Z,17.48
2018-09-24T07:23:20.933Z,17.44
2018-09-24T07:24:20.407Z,17.51
2018-09-24T07:25:18.885Z,17.44
2018-09-24T07:26:17.746Z,17.56
2018-09-24T07:27:16.717Z,17.54
2018-09-24T07:28:15.456Z,17.41
2018-09-24T07:29:14.254Z,17.44
2018-09-24T07:30:13.276Z,17.48
2018-09-24T07:31:12.056Z,17.4
2018-09-24T07:32:10.680Z,17.37
2018-09-24T07:44:24.195Z,17.38
2018-09-24T07:45:22.601Z,17.44
2018-09-24T07:46:21.160Z,17.52
2018-09-24T07:47:20.179Z,17.59
2018-09-24T07:48:18.634Z,17.55
2018-09-24T07:49:17.390Z,17.66
2018-09-24T07:50:16.172Z,17.72
2018-09-24T07:53:55.197Z,17.89
2018-09-24T07:54:54.405Z,17.9
2018-09-24T07:55:53.053Z,17.89
2018-09-24T07:56:51.960Z,17.87
2018-09-24T07:57:50.932Z,17.79
2018-09-24T07:58:49.602Z,17.78
2018-09-24T07:59:48.350Z,17.89
2018-09-24T08:00:47.094Z,17.95
2018-09-24T08:01:45.712Z,17.9
2018-09-24T08:02:44.550Z,17.68
2018-09-24T08:03:43.478Z,17.56
2018-09-24T08:04:42.922Z,17.55
2018-09-24T08:05:41.824Z,17.63
2018-09-24T08:06:40.949Z,17.66
2018-09-24T08:07:39.794Z,17.74
2018-09-24T08:08:38.873Z,17.74
2018-09-24T08:09:37.871Z,17.72
2018-09-24T08:10:36.885Z,17.77
2018-09-24T08:13:18.243Z,17.63
2018-09-24T08:14:17.472Z,17.68
2018-09-24T08:15:15.576Z,17.71
2018-09-24T08:16:14.577Z,17.87
2018-09-24T08:17:13.589Z,17.97
2018-09-24T08:18:12.503Z,18.1
2018-09-24T08:19:11.231Z,18.08
2018-09-24T08:20:10.068Z,18.08
2018-09-24T08:21:09.068Z,18.02
2018-09-24T08:41:30.897Z,18.33
2018-09-24T08:42:29.689Z,18.07
2018-09-24T08:45:10.102Z,17.78
2018-09-24T08:47:50.477Z,17.84
2018-09-24T08:48:49.030Z,17.84
2018-09-24T08:49:48.301Z,17.89
2018-09-24T08:50:47.490Z,17.84
2018-09-24T08:51:46.796Z,18.03
2018-09-24T08:52:45.851Z,17.96
2018-09-24T08:53:44.519Z,18.03
2018-09-24T08:54:43.577Z,17.93
2018-09-24T08:55:42.833Z,17.74
2018-09-24T08:56:41.694Z,17.89
2018-09-24T08:57:40.765Z,17.97
2018-09-24T08:58:39.165Z,18.12
2018-09-24T09:01:19.369Z,18.39
2018-09-24T09:02:18.176Z,18.39
2018-09-24T09:03:16.754Z,18.55
2018-09-24T09:05:57.331Z,18.51
2018-09-24T09:06:56.224Z,18.5
2018-09-24T09:07:55.177Z,18.6
2018-09-24T09:09:53.869Z,18.7
2018-09-24T09:10:53.647Z,18.73
2018-09-24T09:11:52.475Z,18.57
2018-09-24T09:12:51.113Z,18.69
2018-09-24T09:13:50.234Z,18.66
2018-09-24T09:14:49.067Z,18.52
2018-09-24T09:17:09.095Z,18.41
2018-09-24T09:18:09.329Z,18.26
2018-09-24T09:19:08.574Z,17.99
2018-09-24T09:20:07.322Z,17.68
2018-09-24T09:21:06.082Z,17.64
2018-09-24T09:22:04.624Z,17.89
2018-09-24T09:23:03.780Z,18.07
2018-09-24T09:24:02.450Z,18.26
2018-09-24T09:25:01.142Z,18.37
2018-09-24T09:25:59.864Z,18.3
2018-09-24T09:26:58.454Z,18.36
2018-09-24T09:27:57.106Z,18.32
2018-09-24T09:28:55.969Z,18.26
2018-09-24T09:29:54.497Z,17.96
2018-09-24T09:30:53.039Z,17.97
2018-09-24T09:31:51.744Z,18.14
2018-09-24T09:32:50.640Z,18.2
2018-09-24T09:33:49.867Z,18.25
2018-09-24T09:34:48.647Z,18.39
2018-09-24T09:35:47.329Z,18.3
2018-09-24T09:36:45.971Z,18.27
2018-09-24T09:37:44.635Z,18.41
2018-09-24T09:38:43.192Z,18.35
2018-09-24T09:39:42.182Z,18.45
2018-09-24T09:40:40.919Z,18.57
2018-09-24T09:41:39.830Z,18.63
2018-09-24T09:42:38.353Z,18.66
2018-09-24T09:43:37.228Z,18.57
2018-09-24T09:44:35.955Z,18.55
2018-09-24T09:45:34.740Z,18.47
2018-09-24T09:46:33.389Z,18.5
2018-09-24T09:47:31.983Z,18.67
2018-09-24T09:48:31.000Z,18.62
2018-09-24T09:49:29.851Z,18.62
2018-09-24T09:50:28.425Z,18.51
2018-09-24T09:51:27.063Z,18.26
2018-09-24T09:52:25.590Z,18.08
2018-09-24T09:53:24.373Z,18.08
2018-09-24T09:56:05.356Z,18.2
2018-09-24T09:57:04.011Z,18.27
2018-09-24T09:58:02.803Z,18.27
2018-09-24T09:59:01.540Z,18.29
2018-09-24T10:00:00.566Z,18.29
2018-09-24T10:02:41.111Z,18.72
2018-09-24T10:03:39.873Z,18.8
2018-09-24T10:04:38.656Z,18.95
2018-09-24T10:05:37.302Z,19
2018-09-24T10:08:00.014Z,18.81
2018-09-24T10:08:58.581Z,18.94
2018-09-24T10:09:57.284Z,19.04
2018-09-24T10:10:56.084Z,19.04
2018-09-24T10:11:54.636Z,19.19
2018-09-24T10:12:53.370Z,19.06
2018-09-24T10:13:51.990Z,19.02
2018-09-24T10:14:50.781Z,19.08
2018-09-24T10:17:31.171Z,18.87
2018-09-24T10:18:29.839Z,18.76
2018-09-24T10:19:28.842Z,18.73
2018-09-24T10:20:27.980Z,18.88
2018-09-24T10:21:27.309Z,18.88
2018-09-24T10:22:25.659Z,18.92
2018-09-24T10:23:24.556Z,18.92
2018-09-24T10:24:23.140Z,18.9
2018-09-24T10:25:22.218Z,18.87
2018-09-24T10:26:20.739Z,18.99
2018-09-24T10:27:19.436Z,19.08
2018-09-24T10:29:59.916Z,19.28
2018-09-24T10:30:58.666Z,19.37
2018-09-24T10:31:57.411Z,19.33
2018-09-24T10:32:56.051Z,19.19
2018-09-24T10:33:54.802Z,19.02
2018-09-24T10:34:53.608Z,19.04
2018-09-24T10:35:52.300Z,18.9
2018-09-24T10:36:51.031Z,19.02
2018-09-24T10:37:50.171Z,19.1
2018-09-24T10:41:39.517Z,19.13
2018-09-24T10:42:38.266Z,19.23
2018-09-24T10:43:36.894Z,19.07
2018-09-24T10:44:35.564Z,19.02
2018-09-24T10:45:34.101Z,19.02
2018-09-24T10:46:32.765Z,18.7
2018-09-24T10:49:12.810Z,18.58
2018-09-24T10:50:11.461Z,18.78
2018-09-24T10:51:09.941Z,19.02
2018-09-24T10:52:08.625Z,19.25
2018-09-24T10:53:07.597Z,19.33
2018-09-24T10:54:06.244Z,19.19
2018-09-24T10:55:04.953Z,19.06
2018-09-24T10:56:03.717Z,19.18
2018-09-24T10:58:43.899Z,19.39
2018-09-24T10:59:43.086Z,19.4
2018-09-24T11:00:41.952Z,19.51
2018-09-24T11:01:40.906Z,19.5
2018-09-24T11:02:39.629Z,19.4
2018-09-24T11:03:38.140Z,19.39
2018-09-24T11:04:36.862Z,19.36
2018-09-24T11:05:35.857Z,19.32
2018-09-24T11:06:34.697Z,19.23
2018-09-24T11:07:33.337Z,19.11
2018-09-24T11:08:32.173Z,19.23
2018-09-24T11:09:31.211Z,19.14
2018-09-24T11:10:30.035Z,19.18
2018-09-24T11:11:28.826Z,18.98
2018-09-24T11:12:27.557Z,18.75
2018-09-24T11:13:26.243Z,18.62
2018-09-24T11:14:24.706Z,18.57
2018-09-24T11:17:05.460Z,18.51
2018-09-24T11:18:03.922Z,18.37
2018-09-24T11:19:02.700Z,18.36
2018-09-24T11:23:24.733Z,18.72
2018-09-24T11:24:23.290Z,18.87
2018-09-24T11:25:22.008Z,18.8
2018-09-24T11:27:19.185Z,18.92
2018-09-24T11:28:17.960Z,18.84
2018-09-24T11:29:16.778Z,18.69
2018-09-24T11:30:15.337Z,18.75
2018-09-24T11:31:13.892Z,19.04
2018-09-24T11:32:12.593Z,19.07
2018-09-24T11:33:11.253Z,18.95
2018-09-24T11:34:09.946Z,18.85
2018-09-24T11:35:08.745Z,18.95
2018-09-24T11:37:49.142Z,19.02
2018-09-24T11:38:48.092Z,19
2018-09-24T11:39:46.810Z,18.91
2018-09-24T11:40:45.509Z,18.69
2018-09-24T11:41:44.202Z,18.76
2018-09-24T11:42:43.233Z,18.88
2018-09-24T11:43:41.785Z,18.99
2018-09-24T11:44:40.454Z,19
2018-09-24T11:45:39.129Z,19.16
2018-09-24T11:46:37.974Z,19.25
2018-09-24T11:47:36.275Z,19.18
2018-09-24T11:48:34.882Z,19.19
2018-09-24T11:49:33.458Z,19.19
2018-09-24T11:50:32.501Z,19.16
2018-09-24T11:51:31.186Z,19.28
2018-09-24T11:52:29.698Z,19.22
2018-09-24T11:53:28.449Z,19.16
2018-09-24T11:54:27.165Z,19.1
2018-09-24T11:55:25.785Z,19.28
2018-09-24T11:56:25.635Z,19.21
2018-09-24T11:57:24.461Z,19.29
2018-09-24T11:58:23.843Z,19.25
2018-09-24T11:59:22.409Z,19.21
2018-09-24T12:00:20.999Z,18.75
2018-09-24T12:01:19.720Z,18.73
2018-09-24T12:02:18.725Z,18.8
2018-09-24T12:03:17.562Z,18.76
2018-09-24T12:04:16.391Z,18.73
2018-09-24T12:05:14.961Z,18.76
2018-09-24T12:07:56.534Z,18.85
2018-09-24T12:08:55.420Z,18.67
2018-09-24T12:09:55.067Z,18.95
2018-09-24T12:10:53.687Z,19.04
2018-09-24T12:11:52.407Z,19.13
2018-09-24T12:12:51.083Z,19.14
2018-09-24T12:13:49.643Z,19.25
2018-09-24T12:14:48.299Z,19.41
2018-09-24T12:15:46.915Z,19.48
2018-09-24T12:36:17.009Z,19.66
2018-09-24T12:37:15.734Z,19.78
2018-09-24T12:38:14.404Z,19.91
2018-09-24T12:39:13.178Z,19.76
2018-09-24T12:40:11.699Z,19.74
2018-09-24T12:41:11.234Z,19.87
2018-09-24T12:42:09.852Z,19.81
2018-09-24T12:43:08.891Z,19.95
2018-09-24T12:44:08.392Z,19.94
2018-09-24T12:45:07.686Z,20.13
2018-09-24T12:46:11.120Z,20.13
2018-09-24T12:47:09.996Z,20.18
2018-09-24T12:48:08.483Z,19.91
2018-09-24T12:49:07.802Z,19.99
2018-09-24T12:50:06.451Z,19.99
2018-09-24T12:51:06.168Z,19.8
2018-09-24T12:52:05.835Z,19.96
2018-09-24T12:53:05.212Z,19.96
2018-09-24T12:54:04.772Z,19.95
2018-09-24T12:55:03.656Z,19.96
2018-09-24T12:56:02.693Z,19.94
2018-09-24T12:57:01.866Z,19.94
2018-09-24T12:58:00.959Z,19.76
2018-09-24T12:58:59.660Z,19.66
2018-09-24T12:59:58.789Z,19.74
2018-09-24T13:00:58.164Z,19.95
2018-09-24T13:01:57.208Z,19.94
2018-09-24T13:02:56.225Z,20.18
2018-09-24T13:03:55.307Z,20.28
2018-09-24T13:04:53.787Z,20.16
2018-09-24T13:05:52.652Z,20.28
2018-09-24T13:06:51.639Z,20.18
2018-09-24T14:33:51.519Z,19.11
2018-09-24T14:34:49.491Z,19.1
2018-09-24T14:35:48.593Z,19.06
2018-09-24T14:38:28.560Z,19.06
2018-09-24T14:39:27.404Z,19.16
2018-09-24T14:40:26.295Z,19.14
2018-09-24T14:41:24.949Z,19.16
2018-09-24T14:44:05.119Z,19.11
2018-09-24T14:45:03.975Z,19.06
2018-09-24T14:46:02.877Z,19.04
2018-09-24T14:48:43.594Z,18.95
2018-09-24T14:49:42.402Z,18.98
2018-09-24T14:50:41.099Z,18.98
2018-09-24T14:51:40.032Z,18.99
2018-09-24T14:52:38.661Z,18.99
2018-09-24T14:53:37.635Z,18.98
2018-09-24T14:54:36.219Z,19.07
2018-09-24T14:55:34.923Z,19.04
2018-09-24T14:56:33.557Z,19.19
2018-09-24T14:57:32.380Z,19.06
2018-09-24T14:58:31.007Z,18.95
2018-09-24T15:00:53.156Z,19.07
2018-09-24T15:01:52.231Z,19.04
2018-09-24T15:02:50.843Z,19.07
2018-09-24T15:03:49.465Z,18.95
2018-09-24T15:04:48.193Z,18.99
2018-09-24T15:05:46.948Z,19.04
2018-09-24T15:06:45.569Z,19
2018-09-24T15:07:44.377Z,19.1
2018-09-24T15:10:24.743Z,19
2018-09-24T15:11:23.615Z,18.99
2018-09-24T15:12:22.457Z,18.88
2018-09-24T15:13:21.181Z,18.92
2018-09-24T15:14:20.095Z,18.9
2018-09-24T15:15:19.042Z,19.07
2018-09-24T15:16:17.645Z,19.02
2018-09-24T15:17:16.456Z,19.07
2018-09-24T15:19:56.534Z,18.78
2018-09-24T15:38:38.812Z,18.7
2018-09-24T15:39:37.641Z,18.81
2018-09-24T15:42:21.914Z,18.65
2018-09-24T15:46:00.956Z,18.73
2018-09-24T15:47:00.224Z,18.69
2018-09-24T15:47:58.929Z,18.67
2018-09-24T15:48:58.342Z,18.63
2018-09-24T15:49:57.170Z,18.54
2018-09-24T15:52:39.407Z,18.52
2018-09-24T15:53:38.529Z,18.52
2018-09-24T15:57:33.058Z,18.54
2018-09-24T15:58:31.867Z,18.65
2018-09-24T16:01:12.743Z,18.54
2018-09-24T16:02:11.514Z,18.65
2018-09-24T16:05:50.863Z,18.57
2018-09-24T16:08:13.402Z,18.6
2018-09-24T16:09:12.431Z,18.58
2018-09-24T16:11:09.006Z,18.55
2018-09-24T16:15:48.889Z,18.62
2018-09-24T16:16:47.647Z,18.58
2018-09-24T16:17:46.555Z,18.63
2018-09-24T16:18:45.157Z,18.55
2018-09-24T16:21:25.624Z,18.57
2018-09-24T16:22:24.889Z,18.47
2018-09-24T16:23:23.622Z,18.51
2018-09-24T16:26:03.992Z,18.45
2018-09-24T16:28:44.454Z,18.5
2018-09-24T16:44:18.841Z,18.21
2018-09-24T16:46:59.181Z,18.25
2018-09-24T16:47:57.809Z,18.27
2018-09-24T16:48:56.532Z,18.21
2018-09-24T16:49:55.385Z,18.15
2018-09-24T16:50:54.524Z,18.18
2018-09-24T16:51:53.142Z,18.25
2018-09-24T16:53:43.375Z,18.21
2018-09-24T16:54:45.360Z,18.17
2018-09-24T16:55:43.613Z,18.3
2018-09-24T16:56:42.582Z,18.29
2018-09-24T16:59:22.882Z,18.21
2018-09-24T17:00:21.736Z,18.2
2018-09-24T17:01:20.609Z,18.18
2018-09-24T17:02:19.601Z,18.18
2018-09-24T17:03:18.583Z,18.25
2018-09-24T17:04:17.019Z,18.14
2018-09-24T17:05:15.637Z,18.18
2018-09-24T17:06:14.551Z,18.1
2018-09-24T17:07:13.074Z,18.07
2018-09-24T17:08:12.020Z,17.93
2018-09-24T17:09:10.794Z,17.97
2018-09-24T17:10:12.751Z,17.97
2018-09-24T17:11:11.321Z,17.99
2018-09-24T17:12:10.228Z,17.96
2018-09-24T17:13:08.966Z,17.97
2018-09-24T17:14:07.618Z,17.82
2018-09-24T17:15:06.567Z,17.86
2018-09-24T17:16:05.295Z,17.9
2018-09-24T17:17:04.087Z,17.74
2018-09-24T17:18:02.813Z,17.71
2018-09-24T17:39:56.895Z,17.55
2018-09-24T17:42:37.138Z,17.62
2018-09-24T17:43:35.785Z,17.59
2018-09-24T17:44:34.828Z,17.62
2018-09-24T17:45:33.513Z,17.58
2018-09-24T17:46:32.194Z,17.66
2018-09-24T17:47:30.633Z,17.59
2018-09-24T17:48:29.145Z,17.58
2018-09-24T17:49:27.852Z,17.56
2018-09-24T17:50:26.925Z,17.68
2018-09-24T17:51:25.496Z,17.55
2018-09-24T17:52:24.131Z,17.62
2018-09-24T17:53:22.802Z,17.58
2018-09-24T17:54:21.419Z,17.62
2018-09-24T17:55:20.096Z,17.68
2018-09-24T17:56:18.826Z,17.68
2018-09-24T17:57:17.436Z,17.58
2018-09-24T17:58:16.039Z,17.59
2018-09-24T17:59:14.580Z,17.68
2018-09-24T18:00:13.200Z,17.68
2018-09-24T18:01:11.739Z,17.62
2018-09-24T18:02:10.602Z,17.59
2018-09-24T18:03:09.254Z,17.56
2018-09-24T18:04:07.909Z,17.56
2018-09-24T18:05:06.590Z,17.56
2018-09-24T18:06:05.305Z,17.55
2018-09-24T18:07:04.104Z,17.59
2018-09-24T18:08:03.012Z,17.55
2018-09-24T18:09:01.743Z,17.54
2018-09-24T18:10:00.336Z,17.56
2018-09-24T18:10:59.161Z,17.58
2018-09-24T18:11:57.775Z,17.56
2018-09-24T18:12:56.658Z,17.49
2018-09-24T18:13:55.277Z,17.55
2018-09-24T18:14:53.871Z,17.54
2018-09-24T18:15:52.462Z,17.49
2018-09-24T18:16:51.201Z,17.55
2018-09-24T18:17:49.783Z,17.63
2018-09-24T18:18:48.714Z,17.58
2018-09-24T18:19:47.339Z,17.49
2018-09-24T18:20:45.901Z,17.44
2018-09-24T18:21:44.456Z,17.41
2018-09-24T18:22:43.174Z,17.51
2018-09-24T18:23:41.733Z,17.51
2018-09-24T18:24:40.397Z,17.58
2018-09-24T18:25:39.212Z,17.55
2018-09-24T18:26:37.711Z,17.52
2018-09-24T18:27:36.341Z,17.58
2018-09-24T18:28:35.117Z,17.59
2018-09-24T18:31:15.498Z,17.49
2018-09-24T18:32:14.142Z,17.56
2018-09-24T18:33:12.822Z,17.51
2018-09-24T18:34:11.327Z,17.44
2018-09-24T18:35:09.911Z,17.43
2018-09-24T18:36:08.627Z,17.34
2018-09-24T18:37:07.205Z,17.44
2018-09-24T18:38:05.749Z,17.41
2018-09-24T18:39:04.484Z,17.46
2018-09-24T18:48:26.382Z,17.41
2018-09-24T18:49:26.246Z,17.38
2018-09-24T18:50:25.027Z,17.52
2018-09-24T18:53:09.383Z,17.4
2018-09-24T18:54:08.283Z,17.41
2018-09-24T18:55:07.189Z,17.49
2018-09-24T18:56:05.974Z,17.46
2018-09-24T18:58:46.308Z,17.44
2018-09-24T18:59:44.966Z,17.51
2018-09-24T19:00:43.961Z,17.49
2018-09-24T19:01:42.538Z,17.54
2018-09-24T19:02:41.420Z,17.54
2018-09-24T19:05:22.470Z,17.54
2018-09-24T19:06:21.380Z,17.49
2018-09-24T19:07:20.025Z,17.43
2018-09-24T19:08:19.328Z,17.48
2018-09-24T19:09:18.243Z,17.51
2018-09-24T19:10:17.206Z,17.43
2018-09-24T19:12:57.578Z,17.54
2018-09-24T19:13:56.280Z,17.49
2018-09-24T19:14:55.144Z,17.56
2018-09-24T19:15:53.766Z,17.56
2018-09-24T19:18:34.243Z,17.56
2018-09-24T19:19:33.099Z,17.52
2018-09-24T19:23:55.081Z,17.52
2018-09-24T19:24:54.020Z,17.48
2018-09-24T19:25:53.028Z,17.36
2018-09-24T19:26:51.785Z,17.37
2018-09-24T19:27:50.875Z,17.37
2018-09-24T19:28:49.639Z,17.34
2018-09-24T19:34:46.370Z,17.43
2018-09-24T19:35:47.558Z,17.38
2018-09-24T19:36:46.457Z,17.37
2018-09-24T19:37:45.281Z,17.49
2018-09-24T19:40:37.849Z,17.25
2018-09-24T19:43:18.689Z,17.26
2018-09-24T19:44:17.734Z,17.22
2018-09-24T19:45:16.718Z,17.12
2018-09-24T19:46:16.180Z,17.03
2018-09-24T19:48:57.578Z,17.08
2018-09-24T19:49:56.092Z,17.14
2018-09-24T19:53:35.715Z,17.14
2018-09-24T19:54:34.536Z,17.15
2018-09-24T19:55:33.166Z,17.11
2018-09-24T19:56:33.400Z,17.07
2018-09-24T20:01:54.251Z,17.11
2018-09-24T20:17:01.818Z,16.81
2018-09-24T20:18:00.631Z,16.76
2018-09-24T20:18:59.384Z,16.89
2018-09-24T20:19:58.074Z,16.83
2018-09-24T20:20:59.087Z,16.86
2018-09-24T20:21:57.860Z,16.85
2018-09-24T20:22:56.820Z,16.86
2018-09-24T20:23:55.597Z,16.86
2018-09-24T20:24:54.346Z,16.79
2018-09-24T20:25:52.900Z,16.7
2018-09-24T20:32:25.902Z,16.82
2018-09-24T20:33:25.601Z,16.86
2018-09-24T20:34:24.215Z,16.81
2018-09-24T20:35:22.901Z,16.64
2018-09-24T20:36:22.461Z,16.56
2018-09-24T20:37:21.262Z,16.5
2018-09-24T20:38:19.891Z,16.38
2018-09-24T20:39:18.579Z,16.34
2018-09-24T20:40:17.079Z,16.45
2018-09-24T20:41:15.732Z,16.42
2018-09-24T20:42:14.222Z,16.39
2018-09-24T20:43:13.134Z,16.34
2018-09-24T20:44:11.661Z,16.39
2018-09-24T20:46:01.014Z,16.42
2018-09-24T20:48:24.628Z,16.27
2018-09-24T20:49:23.449Z,16.31
2018-09-24T20:50:22.249Z,16.41
2018-09-24T20:53:02.952Z,16.33
2018-09-24T20:54:01.715Z,16.23
2018-09-24T20:55:00.496Z,16.25
2018-09-24T20:55:59.266Z,16.24
2018-09-24T20:56:58.384Z,16.24
2018-09-24T20:59:39.504Z,16.21
2018-09-24T21:16:54.701Z,16.05
2018-09-24T21:17:53.516Z,16.17
2018-09-24T21:18:52.243Z,16.09
2018-09-24T21:23:04.772Z,16.21
2018-09-24T21:24:03.480Z,16.21
2018-09-24T21:26:44.072Z,16.04
2018-09-24T21:27:42.929Z,16.09
2018-09-24T21:28:41.709Z,16.07
2018-09-24T21:29:40.537Z,16.05
2018-09-24T21:32:20.860Z,16.05
2018-09-24T21:35:01.287Z,16.12
2018-09-24T21:35:59.937Z,16.02
2018-09-24T21:38:40.167Z,16.15
2018-09-24T21:39:39.220Z,16.2
2018-09-24T21:40:38.034Z,16.14
2018-09-24T21:41:36.891Z,16.05
2018-09-24T21:42:35.525Z,16.08
2018-09-24T21:43:34.194Z,16.09
2018-09-24T21:46:14.938Z,16
2018-09-24T21:47:13.435Z,15.93
2018-09-24T21:48:12.114Z,15.96
2018-09-24T21:50:02.522Z,15.92
2018-09-24T21:52:42.563Z,15.9
2018-09-24T21:53:41.304Z,15.89
2018-09-24T21:58:03.306Z,15.72
2018-09-24T21:59:56.491Z,15.74
2018-09-24T22:00:55.833Z,15.75
2018-09-24T22:01:54.417Z,15.8
2018-09-24T22:02:53.413Z,15.82
2018-09-24T22:03:52.044Z,15.84
2018-09-24T22:04:50.799Z,15.8
2018-09-24T22:07:31.294Z,15.83
2018-09-24T22:08:29.973Z,15.9
2018-09-24T22:09:28.798Z,15.93
2018-09-24T22:10:27.735Z,15.96
2018-09-24T22:11:26.431Z,15.94
2018-09-24T22:12:25.409Z,15.92
2018-09-24T22:13:24.264Z,15.92
2018-09-24T22:16:05.189Z,16
2018-09-24T22:17:03.046Z,15.94
2018-09-24T22:18:01.832Z,15.78
2018-09-24T22:20:42.037Z,15.84
2018-09-24T22:43:41.737Z,15.56
